Time;durP1;ratioP1;P1;durP2;ratioP2;P2;SDS_P1;SDS_P2;PMS_P1;PMS_P2;Temp;Humidity;BMP_temperature;BMP_pressure;BME280_temperature;BME280_humidity;BME280_pressure;Samples;Min_cycle;Max_cycle;Signal;HPM_P1;HPM_P2
2022/10/21 00:00:58;;;;;;;;;;;21.60;99.90;;;;;;5065446;28;19908;-70
2022/10/21 00:03:25;;;;;;;;;;;21.60;99.90;;;;;;5084682;28;19927;-70
2022/10/21 00:05:52;;;;;;;;;;;21.70;99.90;;;;;;5083973;28;19978;-72
2022/10/21 00:08:19;;;;;;;;;;;21.90;99.90;;;;;;5088578;28;19912;-70
2022/10/21 00:10:50;;;;;;;;;;;22.00;99.90;;;;;;5094129;28;19938;-72
2022/10/21 00:13:16;;;;;;;;;;;22.10;99.90;;;;;;5094010;28;19908;-71
2022/10/21 00:15:43;;;;;;;;;;;22.30;99.90;;;;;;5093597;28;19915;-71
2022/10/21 00:18:09;;;;;;;;;;;22.40;99.90;;;;;;5093705;28;19912;-71
2022/10/21 00:20:39;;;;;;;;;;;22.40;99.90;;;;;;5093752;28;19912;-72
2022/10/21 00:23:06;;;;;;;;;;;22.40;99.90;;;;;;5093008;28;19920;-71
2022/10/21 00:25:32;;;;;;;;;;;22.30;99.90;;;;;;5090062;28;19920;-71
2022/10/21 00:27:59;;;;;;;;;;;22.30;99.90;;;;;;5088211;28;20387;-71
2022/10/21 00:30:26;;;;;;;;;;;22.30;99.90;;;;;;5092050;28;19908;-71
2022/10/21 00:32:52;;;;;;;;;;;22.40;99.90;;;;;;5076431;28;20280;-70
2022/10/21 00:35:19;;;;;;;;;;;22.70;99.90;;;;;;5071846;28;19912;-71
2022/10/21 00:37:45;;;;;;;;;;;22.90;99.90;;;;;;5087364;28;20373;-71
2022/10/21 00:40:12;;;;;;;;;;;23.10;99.90;;;;;;5078400;28;19912;-71
2022/10/21 00:42:39;;;;;;;;;;;23.30;99.90;;;;;;5093018;28;20478;-70
2022/10/21 00:45:06;;;;;;;;;;;23.50;99.90;;;;;;5093470;28;20319;-71
2022/10/21 00:47:37;;;;;;;;;;;23.80;99.90;;;;;;5093135;28;19912;-71
2022/10/21 00:50:04;;;;;;;;;;;23.70;99.90;;;;;;5093336;28;19922;-71
2022/10/21 00:52:33;;;;;;;;;;;23.70;99.90;;;;;;5093417;28;19909;-70
2022/10/21 00:55:01;;;;;;;;;;;23.50;99.90;;;;;;5093054;28;20439;-71
2022/10/21 00:57:30;;;;;;;;;;;23.40;99.90;;;;;;5092844;28;19955;-72
2022/10/21 00:59:58;;;;;;;;;;;23.20;99.90;;;;;;5092672;28;19934;-70
2022/10/21 01:02:25;;;;;;;;;;;23.30;99.90;;;;;;5092601;28;20414;-71
2022/10/21 01:04:53;;;;;;;;;;;23.30;99.90;;;;;;5092774;28;20026;-70
2022/10/21 01:07:20;;;;;;;;;;;23.40;99.90;;;;;;5092844;28;19919;-71
2022/10/21 01:09:47;;;;;;;;;;;23.40;99.90;;;;;;5092885;28;19961;-70
2022/10/21 01:12:29;;;;;;;;;;;23.40;99.90;;;;;;5092614;28;19943;-70
2022/10/21 01:15:02;;;;;;;;;;;23.40;99.90;;;;;;5092417;28;19919;-71
2022/10/21 01:17:44;;;;;;;;;;;23.40;99.90;;;;;;5074174;28;20261;-70
2022/10/21 01:20:26;;;;;;;;;;;23.30;99.90;;;;;;5057627;28;19958;-70
2022/10/21 01:23:11;;;;;;;;;;;23.10;99.90;;;;;;5092585;28;20273;-70
2022/10/21 01:25:56;;;;;;;;;;;23.00;99.90;;;;;;5074027;28;20331;-70
2022/10/21 01:28:41;;;;;;;;;;;23.00;99.90;;;;;;5092501;28;19908;-69
2022/10/21 01:31:12;;;;;;;;;;;23.10;99.90;;;;;;5083119;28;20021;-71
2022/10/21 01:33:41;;;;;;;;;;;23.20;99.90;;;;;;5072048;28;19909;-70
2022/10/21 01:36:27;;;;;;;;;;;23.30;99.90;;;;;;5079250;28;19912;-71
2022/10/21 01:39:10;;;;;;;;;;;23.30;99.90;;;;;;5090435;28;19965;-71
2022/10/21 01:41:37;;;;;;;;;;;23.30;99.90;;;;;;5091708;28;20452;-70
2022/10/21 01:44:10;;;;;;;;;;;23.40;99.90;;;;;;5091615;28;20414;-70
2022/10/21 01:46:44;;;;;;;;;;;23.50;99.90;;;;;;5091794;28;20299;-70
2022/10/21 01:49:14;;;;;;;;;;;23.60;99.90;;;;;;5091769;28;19934;-70
2022/10/21 01:51:41;;;;;;;;;;;23.50;99.90;;;;;;5092124;28;19920;-70
2022/10/21 01:54:11;;;;;;;;;;;23.30;99.90;;;;;;5092012;28;19916;-70
2022/10/21 01:56:40;;;;;;;;;;;23.40;99.90;;;;;;5092166;28;20321;-71
2022/10/21 01:59:08;;;;;;;;;;;23.50;99.90;;;;;;5092216;28;20352;-70
2022/10/21 02:01:36;;;;;;;;;;;23.90;99.90;;;;;;5091510;28;20403;-70
2022/10/21 02:04:04;;;;;;;;;;;24.10;99.90;;;;;;5091509;28;19920;-70
2022/10/21 02:06:31;;;;;;;;;;;24.30;99.90;;;;;;5092145;28;19908;-70
2022/10/21 02:08:58;;;;;;;;;;;24.40;99.90;;;;;;5091183;28;19939;-71
2022/10/21 02:11:25;;;;;;;;;;;24.60;99.90;;;;;;5091305;28;19909;-70
2022/10/21 02:14:01;;;;;;;;;;;25.00;99.90;;;;;;5091174;28;20007;-70
2022/10/21 02:16:32;;;;;;;;;;;25.10;99.90;;;;;;5090742;28;19937;-71
2022/10/21 02:18:59;;;;;;;;;;;24.90;99.90;;;;;;5091741;28;20376;-70
2022/10/21 02:21:27;;;;;;;;;;;25.00;99.90;;;;;;5091694;28;20619;-70
2022/10/21 02:23:54;;;;;;;;;;;25.10;99.90;;;;;;5091223;28;19920;-70
2022/10/21 02:26:22;;;;;;;;;;;25.00;99.90;;;;;;5091480;28;19947;-70
2022/10/21 02:28:49;;;;;;;;;;;24.90;99.90;;;;;;5091578;28;19912;-70
2022/10/21 02:31:27;;;;;;;;;;;24.80;99.90;;;;;;5073077;28;19930;-70
2022/10/21 02:34:02;;;;;;;;;;;24.80;99.90;;;;;;5073503;28;19915;-69
2022/10/21 02:36:43;;;;;;;;;;;25.00;99.90;;;;;;5091253;28;19916;-69
2022/10/21 02:39:13;;;;;;;;;;;25.10;99.90;;;;;;5090900;28;19915;-71
2022/10/21 02:41:41;;;;;;;;;;;25.10;99.90;;;;;;5091371;28;19908;-70
2022/10/21 02:44:08;;;;;;;;;;;25.40;99.90;;;;;;5091308;28;19922;-71
2022/10/21 02:46:40;;;;;;;;;;;25.40;99.90;;;;;;5091321;28;20273;-70
2022/10/21 02:49:07;;;;;;;;;;;25.50;99.90;;;;;;5091193;28;19912;-71
2022/10/21 02:51:34;;;;;;;;;;;25.50;99.90;;;;;;5091354;28;19927;-71
2022/10/21 02:54:01;;;;;;;;;;;24.90;99.90;;;;;;5091040;28;19915;-69
2022/10/21 02:56:27;;;;;;;;;;;24.70;99.90;;;;;;5091088;28;20379;-71
2022/10/21 02:58:54;;;;;;;;;;;24.60;99.90;;;;;;5091654;28;20327;-70
2022/10/21 03:01:21;;;;;;;;;;;24.40;99.90;;;;;;5091529;28;19916;-70
2022/10/21 03:03:47;;;;;;;;;;;24.10;99.90;;;;;;5090941;28;19960;-71
2022/10/21 03:06:14;;;;;;;;;;;24.00;99.90;;;;;;5091480;28;19908;-70
2022/10/21 03:08:40;;;;;;;;;;;23.70;99.90;;;;;;5091487;28;19932;-71
2022/10/21 03:11:07;;;;;;;;;;;23.60;99.90;;;;;;5090633;28;19915;-71
2022/10/21 03:13:34;;;;;;;;;;;23.50;99.90;;;;;;5090898;28;19957;-69
2022/10/21 03:16:00;;;;;;;;;;;23.20;99.90;;;;;;5090919;28;19908;-71
2022/10/21 03:18:27;;;;;;;;;;;23.10;99.90;;;;;;5091070;28;19908;-69
2022/10/21 03:20:54;;;;;;;;;;;23.00;99.90;;;;;;5091270;28;19958;-69
2022/10/21 03:23:20;;;;;;;;;;;22.70;99.90;;;;;;5087723;28;19966;-71
2022/10/21 03:25:47;;;;;;;;;;;22.50;99.90;;;;;;5071123;28;19909;-70
2022/10/21 03:28:14;;;;;;;;;;;22.50;99.90;;;;;;5073379;28;20329;-68
2022/10/21 03:30:41;;;;;;;;;;;22.60;99.90;;;;;;5074510;28;19915;-70
2022/10/21 03:33:07;;;;;;;;;;;22.60;99.90;;;;;;5074259;28;19908;-70
2022/10/21 03:35:34;;;;;;;;;;;22.80;99.90;;;;;;5074244;28;19912;-70
2022/10/21 03:38:00;;;;;;;;;;;22.90;99.90;;;;;;5074262;28;19996;-70
2022/10/21 03:40:29;;;;;;;;;;;23.00;99.90;;;;;;5074156;28;19915;-71
2022/10/21 03:42:56;;;;;;;;;;;23.10;99.90;;;;;;5074373;28;20342;-71
2022/10/21 03:45:23;;;;;;;;;;;23.20;99.90;;;;;;5075250;28;19920;-71
2022/10/21 03:47:50;;;;;;;;;;;23.40;99.90;;;;;;5075329;28;19908;-69
2022/10/21 03:50:18;;;;;;;;;;;23.80;99.90;;;;;;5075174;28;19917;-70
2022/10/21 03:52:45;;;;;;;;;;;24.20;99.90;;;;;;5075393;28;19913;-71
2022/10/21 03:55:11;;;;;;;;;;;24.50;99.90;;;;;;5075244;28;19931;-69
2022/10/21 03:57:38;;;;;;;;;;;24.80;99.90;;;;;;5074318;28;19915;-69
2022/10/21 04:00:05;;;;;;;;;;;24.90;99.90;;;;;;5074247;28;19913;-70
2022/10/21 04:02:32;;;;;;;;;;;24.70;99.90;;;;;;5077176;28;19912;-70
2022/10/21 04:04:58;;;;;;;;;;;24.50;99.90;;;;;;5074103;28;20288;-69
2022/10/21 04:07:25;;;;;;;;;;;24.10;99.90;;;;;;5073211;28;20375;-71
2022/10/21 04:09:51;;;;;;;;;;;23.90;99.90;;;;;;5072655;28;19919;-69
2022/10/21 04:12:18;;;;;;;;;;;23.80;99.90;;;;;;5074066;28;19912;-69
2022/10/21 04:14:45;;;;;;;;;;;23.70;99.90;;;;;;5074666;28;19962;-69
2022/10/21 04:17:11;;;;;;;;;;;23.70;99.90;;;;;;5074280;28;19909;-72
2022/10/21 04:19:38;;;;;;;;;;;23.60;99.90;;;;;;5071909;28;19908;-69
2022/10/21 04:22:05;;;;;;;;;;;23.80;99.90;;;;;;5070718;28;20033;-71
2022/10/21 04:24:31;;;;;;;;;;;24.00;99.90;;;;;;5071394;28;20355;-69
2022/10/21 04:26:58;;;;;;;;;;;24.30;99.90;;;;;;5072352;28;19916;-69
2022/10/21 04:29:24;;;;;;;;;;;24.70;99.90;;;;;;5072703;28;20330;-68
2022/10/21 04:31:51;;;;;;;;;;;25.90;99.90;;;;;;5072874;28;19908;-71
2022/10/21 04:34:18;;;;;;;;;;;26.90;99.90;;;;;;5073303;28;19932;-71
2022/10/21 04:36:44;;;;;;;;;;;27.80;99.90;;;;;;5073911;28;20426;-69
2022/10/21 04:39:11;;;;;;;;;;;28.20;99.90;;;;;;5073627;28;20046;-71
2022/10/21 04:41:37;;;;;;;;;;;28.90;99.50;;;;;;5073889;28;19920;-69
2022/10/21 04:44:05;;;;;;;;;;;30.30;98.00;;;;;;5073965;28;20371;-69
2022/10/21 04:46:32;;;;;;;;;;;30.90;96.70;;;;;;5074504;28;19915;-69
2022/10/21 04:48:58;;;;;;;;;;;32.00;94.30;;;;;;5074358;28;19908;-70
2022/10/21 04:51:25;;;;;;;;;;;32.30;92.60;;;;;;5073539;28;19920;-72
2022/10/21 04:53:52;;;;;;;;;;;31.80;92.30;;;;;;5091331;28;19997;-70
2022/10/21 04:56:18;;;;;;;;;;;31.90;92.30;;;;;;5093963;28;19919;-72
2022/10/21 04:58:47;;;;;;;;;;;31.80;92.30;;;;;;5093415;28;20335;-70
2022/10/21 05:01:13;;;;;;;;;;;31.50;91.90;;;;;;5093799;28;19919;-69
2022/10/21 05:03:42;;;;;;;;;;;31.70;91.90;;;;;;5093112;28;19927;-69
2022/10/21 05:06:08;;;;;;;;;;;31.50;91.50;;;;;;5075087;28;20453;-70
2022/10/21 05:08:38;;;;;;;;;;;31.20;91.80;;;;;;5093443;28;19909;-69
2022/10/21 05:11:08;;;;;;;;;;;30.40;92.00;;;;;;5092665;28;19938;-70
2022/10/21 05:13:35;;;;;;;;;;;29.40;94.00;;;;;;5093216;28;19908;-69
2022/10/21 05:16:03;;;;;;;;;;;28.80;94.60;;;;;;5093185;28;19985;-69
2022/10/21 05:18:31;;;;;;;;;;;28.50;95.00;;;;;;5092653;28;19908;-71
2022/10/21 05:20:58;;;;;;;;;;;28.10;95.60;;;;;;5093426;28;20003;-69
2022/10/21 05:23:26;;;;;;;;;;;27.70;96.50;;;;;;5092888;28;19912;-70
2022/10/21 05:25:52;;;;;;;;;;;27.50;97.20;;;;;;5093121;28;20478;-70
2022/10/21 05:28:19;;;;;;;;;;;27.30;97.00;;;;;;5092936;28;19915;-70
2022/10/21 05:30:46;;;;;;;;;;;27.10;97.40;;;;;;5093052;28;19908;-69
2022/10/21 05:33:13;;;;;;;;;;;26.70;98.10;;;;;;5092779;28;20411;-69
2022/10/21 05:35:40;;;;;;;;;;;26.50;98.00;;;;;;5093031;28;19919;-70
2022/10/21 05:38:07;;;;;;;;;;;25.80;99.50;;;;;;5092452;28;19908;-69
2022/10/21 05:40:34;;;;;;;;;;;25.50;99.90;;;;;;5089165;28;19919;-70
2022/10/21 05:43:00;;;;;;;;;;;25.30;99.70;;;;;;5092927;28;19912;-72
2022/10/21 05:45:27;;;;;;;;;;;25.00;99.90;;;;;;5093462;28;19947;-69
2022/10/21 05:47:54;;;;;;;;;;;24.80;99.90;;;;;;5093601;28;19912;-71
2022/10/21 05:50:21;;;;;;;;;;;24.60;99.90;;;;;;5091790;28;19942;-72
2022/10/21 05:52:47;;;;;;;;;;;24.30;99.90;;;;;;5074213;28;19908;-70
2022/10/21 05:55:14;;;;;;;;;;;24.30;99.90;;;;;;5092978;28;20011;-71
2022/10/21 05:57:44;;;;;;;;;;;24.20;99.90;;;;;;5092555;28;19974;-69
2022/10/21 06:00:12;;;;;;;;;;;24.10;99.90;;;;;;5092641;28;19908;-70
2022/10/21 06:02:42;;;;;;;;;;;24.10;99.90;;;;;;5092091;28;19908;-71
2022/10/21 06:05:09;;;;;;;;;;;24.00;99.90;;;;;;5092422;28;19926;-70
2022/10/21 06:07:39;;;;;;;;;;;23.80;99.90;;;;;;5092320;28;20407;-70
2022/10/21 06:10:06;;;;;;;;;;;23.60;99.90;;;;;;5092412;28;19908;-70
2022/10/21 06:12:32;;;;;;;;;;;23.50;99.90;;;;;;5091824;28;19912;-71
2022/10/21 06:14:59;;;;;;;;;;;23.40;99.90;;;;;;5092051;28;20241;-71
2022/10/21 06:17:26;;;;;;;;;;;23.30;99.90;;;;;;5091811;28;19923;-71
2022/10/21 06:19:52;;;;;;;;;;;23.00;99.90;;;;;;5092199;28;20296;-69
2022/10/21 06:22:19;;;;;;;;;;;22.90;99.90;;;;;;5092223;28;19915;-70
2022/10/21 06:24:46;;;;;;;;;;;22.90;99.90;;;;;;5092334;28;19923;-69
2022/10/21 06:27:12;;;;;;;;;;;22.90;99.90;;;;;;5092077;28;19908;-69
2022/10/21 06:29:39;;;;;;;;;;;22.90;99.90;;;;;;5091757;28;19919;-70
2022/10/21 06:32:06;;;;;;;;;;;23.00;99.90;;;;;;5092077;28;19955;-70
2022/10/21 06:34:32;;;;;;;;;;;23.10;99.90;;;;;;5092500;28;20369;-71
2022/10/21 06:36:59;;;;;;;;;;;23.00;99.90;;;;;;5084992;28;19908;-70
2022/10/21 06:39:26;;;;;;;;;;;23.00;99.90;;;;;;5084919;28;19919;-70
2022/10/21 06:41:52;;;;;;;;;;;23.00;99.90;;;;;;5091998;28;19909;-71
2022/10/21 06:44:19;;;;;;;;;;;22.90;99.90;;;;;;5073451;28;19916;-70
2022/10/21 06:46:46;;;;;;;;;;;22.70;99.90;;;;;;5088780;28;19908;-71
2022/10/21 06:49:12;;;;;;;;;;;22.60;99.90;;;;;;5090702;28;19915;-71
2022/10/21 06:51:39;;;;;;;;;;;22.50;99.90;;;;;;5089458;28;20376;-71
2022/10/21 06:54:05;;;;;;;;;;;22.50;99.90;;;;;;5090010;28;19908;-72
2022/10/21 06:56:33;;;;;;;;;;;22.40;99.90;;;;;;5090735;28;19969;-72
2022/10/21 06:59:00;;;;;;;;;;;22.30;99.90;;;;;;5085747;28;20435;-72
2022/10/21 07:01:28;;;;;;;;;;;22.30;99.90;;;;;;5085010;28;19912;-72
2022/10/21 07:03:55;;;;;;;;;;;22.30;99.90;;;;;;5086976;28;19926;-72
2022/10/21 07:06:21;;;;;;;;;;;22.20;99.90;;;;;;5086567;28;19998;-71
2022/10/21 07:08:48;;;;;;;;;;;22.20;99.90;;;;;;5084052;28;19983;-73
2022/10/21 07:11:15;;;;;;;;;;;22.20;99.90;;;;;;5083509;28;19912;-72
2022/10/21 07:13:41;;;;;;;;;;;22.00;99.90;;;;;;5087669;28;20490;-72
2022/10/21 07:16:16;;;;;;;;;;;22.00;99.90;;;;;;5085222;28;19912;-73
2022/10/21 07:18:43;;;;;;;;;;;21.90;99.90;;;;;;5082842;28;19974;-72
2022/10/21 07:21:17;;;;;;;;;;;21.70;99.90;;;;;;5086231;28;19956;-72
2022/10/21 07:23:45;;;;;;;;;;;21.60;99.90;;;;;;5086900;28;19928;-72
2022/10/21 07:26:11;;;;;;;;;;;21.50;99.90;;;;;;5082460;28;19912;-71
2022/10/21 07:28:39;;;;;;;;;;;21.40;99.90;;;;;;5099340;28;19912;-71
2022/10/21 07:31:05;;;;;;;;;;;21.40;99.90;;;;;;5086968;28;20368;-71
2022/10/21 07:33:33;;;;;;;;;;;21.30;99.90;;;;;;5088811;28;19943;-71
2022/10/21 07:36:11;;;;;;;;;;;21.20;99.90;;;;;;5085971;28;20411;-72
2022/10/21 07:38:38;;;;;;;;;;;21.20;99.90;;;;;;5059631;28;19913;-71
2022/10/21 07:41:05;;;;;;;;;;;21.20;99.90;;;;;;5066728;28;19916;-70
2022/10/21 07:43:32;;;;;;;;;;;21.10;99.90;;;;;;5086417;28;19916;-70
2022/10/21 07:45:59;;;;;;;;;;;21.10;99.90;;;;;;5092012;28;19912;-72
2022/10/21 07:48:26;;;;;;;;;;;21.00;99.90;;;;;;5087768;28;19908;-70
2022/10/21 07:50:52;;;;;;;;;;;20.90;99.90;;;;;;5093057;28;20014;-70
2022/10/21 07:53:20;;;;;;;;;;;20.80;99.90;;;;;;5093873;28;20364;-70
2022/10/21 07:55:47;;;;;;;;;;;20.80;99.90;;;;;;5093861;28;19931;-70
2022/10/21 07:58:13;;;;;;;;;;;20.70;99.90;;;;;;5089792;28;19962;-70
2022/10/21 08:00:42;;;;;;;;;;;20.70;99.90;;;;;;5089121;28;19915;-70
2022/10/21 08:03:11;;;;;;;;;;;20.70;99.90;;;;;;5090640;28;19916;-70
2022/10/21 08:05:39;;;;;;;;;;;20.70;99.90;;;;;;5092289;28;19931;-71
2022/10/21 08:08:06;;;;;;;;;;;20.70;99.90;;;;;;5093174;28;20489;-70
2022/10/21 08:10:38;;;;;;;;;;;20.60;99.90;;;;;;5089120;28;19951;-71
2022/10/21 08:13:04;;;;;;;;;;;20.60;99.90;;;;;;5089282;28;19930;-69
2022/10/21 08:15:31;;;;;;;;;;;20.60;99.90;;;;;;5092540;28;20006;-69
2022/10/21 08:17:58;;;;;;;;;;;20.60;99.90;;;;;;5093321;28;20006;-71
2022/10/21 08:20:26;;;;;;;;;;;20.50;99.90;;;;;;5090153;28;20147;-70
2022/10/21 08:22:53;;;;;;;;;;;20.50;99.90;;;;;;5091503;28;19916;-70
2022/10/21 08:25:19;;;;;;;;;;;20.50;99.90;;;;;;5090604;28;19912;-71
2022/10/21 08:27:46;;;;;;;;;;;20.50;99.90;;;;;;5092196;28;19934;-70
2022/10/21 08:30:14;;;;;;;;;;;20.50;99.90;;;;;;5075090;28;19916;-71
2022/10/21 08:32:41;;;;;;;;;;;20.50;99.90;;;;;;5093295;28;19908;-70
2022/10/21 08:35:07;;;;;;;;;;;20.50;99.90;;;;;;5093048;28;19912;-70
2022/10/21 08:37:34;;;;;;;;;;;20.50;99.90;;;;;;5093011;28;20253;-71
2022/10/21 08:40:01;;;;;;;;;;;20.40;99.90;;;;;;5092764;28;19952;-71
2022/10/21 08:42:27;;;;;;;;;;;20.40;99.90;;;;;;5092772;28;20349;-71
2022/10/21 08:45:01;;;;;;;;;;;20.40;99.90;;;;;;5092455;28;19961;-71
2022/10/21 08:47:28;;;;;;;;;;;20.40;99.90;;;;;;5092826;28;19958;-71
2022/10/21 08:49:55;;;;;;;;;;;20.40;99.90;;;;;;5085070;28;19988;-73
2022/10/21 08:52:43;;;;;;;;;;;20.30;99.90;;;;;;5066462;28;20096;-70
2022/10/21 08:55:15;;;;;;;;;;;20.30;99.90;;;;;;5083515;28;19934;-72
2022/10/21 08:57:41;;;;;;;;;;;20.30;99.90;;;;;;5086811;28;19961;-71
2022/10/21 09:00:14;;;;;;;;;;;20.30;99.90;;;;;;5084074;28;19915;-72
2022/10/21 09:03:01;;;;;;;;;;;20.30;99.90;;;;;;5086006;28;19912;-70
2022/10/21 09:05:27;;;;;;;;;;;20.30;99.90;;;;;;5064282;28;19967;-71
2022/10/21 09:08:05;;;;;;;;;;;20.30;99.90;;;;;;5086728;28;20330;-72
2022/10/21 09:10:50;;;;;;;;;;;20.20;99.90;;;;;;5086830;28;19995;-71
2022/10/21 09:13:35;;;;;;;;;;;20.20;99.90;;;;;;5084322;28;19950;-73
2022/10/21 09:16:09;;;;;;;;;;;20.20;99.90;;;;;;5074336;28;19992;-72
2022/10/21 09:18:51;;;;;;;;;;;20.20;99.90;;;;;;5066315;28;19912;-72
2022/10/21 09:21:26;;;;;;;;;;;20.10;99.90;;;;;;5063592;28;19909;-71
2022/10/21 09:23:52;;;;;;;;;;;20.20;99.90;;;;;;5066533;28;20341;-72
2022/10/21 09:26:38;;;;;;;;;;;20.10;99.90;;;;;;5046106;28;19908;-72
2022/10/21 09:29:28;;;;;;;;;;;20.10;99.90;;;;;;5065205;28;19928;-71
2022/10/21 09:32:10;;;;;;;;;;;20.10;99.90;;;;;;5058278;28;20432;-71
2022/10/21 09:34:44;;;;;;;;;;;20.10;99.90;;;;;;5066174;28;19954;-72
2022/10/21 09:37:15;;;;;;;;;;;20.00;99.90;;;;;;5063614;28;19908;-73
2022/10/21 09:39:45;;;;;;;;;;;20.00;99.90;;;;;;5066357;28;20360;-72
2022/10/21 09:42:12;;;;;;;;;;;20.10;99.90;;;;;;5063381;28;19908;-72
2022/10/21 09:44:39;;;;;;;;;;;20.00;99.90;;;;;;5082067;28;19981;-72
2022/10/21 09:47:18;;;;;;;;;;;20.00;99.90;;;;;;5084696;28;19908;-73
2022/10/21 09:49:46;;;;;;;;;;;20.10;99.90;;;;;;5086370;28;19915;-69
2022/10/21 09:52:14;;;;;;;;;;;20.00;99.90;;;;;;5083504;28;20318;-71
2022/10/21 09:54:41;;;;;;;;;;;20.00;99.90;;;;;;5085125;28;19908;-71
2022/10/21 09:57:20;;;;;;;;;;;20.00;99.90;;;;;;5084556;28;19961;-71
2022/10/21 09:59:51;;;;;;;;;;;20.00;99.90;;;;;;5085702;28;19940;-70
2022/10/21 10:02:23;;;;;;;;;;;20.00;99.90;;;;;;5065555;28;19966;-70
2022/10/21 10:04:50;;;;;;;;;;;20.00;99.90;;;;;;5067777;28;19970;-70
2022/10/21 10:07:19;;;;;;;;;;;20.00;99.90;;;;;;5083603;28;19949;-70
2022/10/21 10:09:47;;;;;;;;;;;19.90;99.90;;;;;;5085781;28;19951;-71
2022/10/21 10:12:15;;;;;;;;;;;19.90;99.90;;;;;;5090859;28;20010;-71
2022/10/21 10:14:45;;;;;;;;;;;19.90;99.90;;;;;;5090944;28;19908;-71
2022/10/21 10:17:26;;;;;;;;;;;19.90;99.90;;;;;;5090728;28;20009;-72
2022/10/21 10:20:04;;;;;;;;;;;19.90;99.90;;;;;;5091325;28;19908;-71
2022/10/21 10:22:32;;;;;;;;;;;19.80;99.90;;;;;;5075183;28;19916;-71
2022/10/21 10:25:14;;;;;;;;;;;19.80;99.90;;;;;;5079015;28;19925;-71
2022/10/21 10:27:48;;;;;;;;;;;19.80;99.90;;;;;;5073298;28;19959;-71
2022/10/21 10:30:15;;;;;;;;;;;19.80;99.90;;;;;;5074976;28;19961;-71
2022/10/21 10:32:42;;;;;;;;;;;19.80;99.90;;;;;;5080722;28;19920;-70
2022/10/21 10:35:16;;;;;;;;;;;19.70;99.90;;;;;;5077675;28;19938;-70
2022/10/21 10:37:46;;;;;;;;;;;19.70;99.90;;;;;;5080873;28;20373;-70
2022/10/21 10:40:19;;;;;;;;;;;19.70;99.90;;;;;;5080042;28;19921;-69
2022/10/21 10:42:46;;;;;;;;;;;19.70;99.90;;;;;;5078323;28;20010;-72
2022/10/21 10:45:19;;;;;;;;;;;19.70;99.90;;;;;;5082902;28;19924;-72
2022/10/21 10:47:54;;;;;;;;;;;19.70;99.90;;;;;;5089617;28;19920;-72
2022/10/21 10:50:39;;;;;;;;;;;19.60;99.90;;;;;;5083420;28;19920;-71
2022/10/21 10:53:26;;;;;;;;;;;19.60;99.90;;;;;;5091020;28;19912;-70
2022/10/21 10:56:03;;;;;;;;;;;19.60;99.90;;;;;;5076178;28;20351;-70
2022/10/21 10:58:31;;;;;;;;;;;19.60;99.90;;;;;;5091095;28;20549;-72
2022/10/21 11:00:59;;;;;;;;;;;19.60;99.90;;;;;;5091331;28;19912;-70
2022/10/21 11:03:28;;;;;;;;;;;19.60;99.90;;;;;;5090533;28;19912;-71
2022/10/21 11:06:00;;;;;;;;;;;19.50;99.90;;;;;;5090944;28;20342;-73
2022/10/21 11:08:32;;;;;;;;;;;19.60;99.90;;;;;;5076686;28;19912;-71
2022/10/21 11:11:00;;;;;;;;;;;19.60;99.90;;;;;;5085652;28;19915;-71
2022/10/21 11:13:32;;;;;;;;;;;19.50;99.90;;;;;;5092862;28;20435;-72
2022/10/21 11:16:10;;;;;;;;;;;19.50;99.90;;;;;;5087925;28;20001;-72
2022/10/21 11:18:54;;;;;;;;;;;19.60;99.90;;;;;;5094641;28;19908;-71
2022/10/21 11:21:27;;;;;;;;;;;19.50;99.90;;;;;;5094491;28;19978;-71
2022/10/21 11:24:09;;;;;;;;;;;19.50;99.90;;;;;;5095000;28;19916;-71
2022/10/21 11:26:44;;;;;;;;;;;19.50;99.90;;;;;;5095017;28;19912;-71
2022/10/21 11:29:24;;;;;;;;;;;19.50;99.90;;;;;;5094970;28;19999;-72
2022/10/21 11:32:09;;;;;;;;;;;19.40;99.90;;;;;;5080340;28;20280;-72
2022/10/21 11:34:45;;;;;;;;;;;19.40;99.90;;;;;;5074408;28;19955;-72
2022/10/21 11:37:30;;;;;;;;;;;19.40;99.90;;;;;;5082932;28;20292;-72
2022/10/21 11:40:14;;;;;;;;;;;19.50;99.90;;;;;;5077958;28;19909;-71
2022/10/21 11:42:42;;;;;;;;;;;19.40;99.90;;;;;;5083555;28;20007;-71
2022/10/21 11:45:11;;;;;;;;;;;19.40;99.90;;;;;;5080226;28;19920;-71
2022/10/21 11:48:00;;;;;;;;;;;19.50;99.90;;;;;;5077877;28;19908;-72
2022/10/21 11:50:33;;;;;;;;;;;19.50;99.90;;;;;;5065842;28;20261;-71
2022/10/21 11:53:08;;;;;;;;;;;19.40;99.90;;;;;;5085110;28;19923;-71
2022/10/21 11:55:34;;;;;;;;;;;19.40;99.90;;;;;;5083881;28;20276;-71
2022/10/21 11:58:27;;;;;;;;;;;19.40;99.90;;;;;;5080160;28;19916;-72
2022/10/21 12:01:08;;;;;;;;;;;19.40;99.90;;;;;;5070422;28;19909;-72
2022/10/21 12:03:37;;;;;;;;;;;19.40;99.90;;;;;;5074772;28;19919;-72
2022/10/21 12:06:11;;;;;;;;;;;19.40;99.90;;;;;;5056615;28;20339;-72
2022/10/21 12:08:56;;;;;;;;;;;19.40;99.90;;;;;;5073857;28;19908;-71
2022/10/21 12:11:29;;;;;;;;;;;19.30;99.90;;;;;;5074269;28;20383;-71
2022/10/21 12:14:07;;;;;;;;;;;19.40;99.90;;;;;;5074133;28;20051;-71
2022/10/21 12:16:34;;;;;;;;;;;19.30;99.90;;;;;;5074410;28;19924;-72
2022/10/21 12:19:06;;;;;;;;;;;19.40;99.90;;;;;;5074215;28;19931;-70
2022/10/21 12:21:35;;;;;;;;;;;19.30;99.90;;;;;;5074137;28;19908;-71
2022/10/21 12:24:04;;;;;;;;;;;19.30;99.90;;;;;;5074346;28;19923;-72
2022/10/21 12:26:40;;;;;;;;;;;19.30;99.90;;;;;;5074369;28;20210;-72
2022/10/21 12:29:16;;;;;;;;;;;19.30;99.90;;;;;;5074008;28;19915;-72
2022/10/21 12:32:01;;;;;;;;;;;19.40;99.90;;;;;;5073882;28;19915;-71
2022/10/21 12:34:28;;;;;;;;;;;19.30;99.90;;;;;;5073355;28;19931;-71
2022/10/21 12:36:54;;;;;;;;;;;19.30;99.90;;;;;;5074023;28;19912;-71
2022/10/21 12:39:33;;;;;;;;;;;19.30;99.90;;;;;;5073504;28;19908;-70
2022/10/21 12:42:13;;;;;;;;;;;19.30;99.90;;;;;;5074098;28;19987;-71
2022/10/21 12:44:45;;;;;;;;;;;19.30;99.90;;;;;;5055867;28;20265;-71
2022/10/21 12:47:28;;;;;;;;;;;19.30;99.90;;;;;;5055933;28;19908;-71
2022/10/21 12:50:07;;;;;;;;;;;19.30;99.90;;;;;;5073458;28;19917;-71
2022/10/21 12:52:37;;;;;;;;;;;19.20;99.90;;;;;;5073570;28;19913;-71
2022/10/21 12:55:07;;;;;;;;;;;19.20;99.90;;;;;;5073326;28;19967;-70
2022/10/21 12:57:36;;;;;;;;;;;19.30;99.90;;;;;;5073545;28;19987;-71
2022/10/21 13:00:20;;;;;;;;;;;19.20;99.90;;;;;;5073553;28;19908;-71
2022/10/21 13:02:57;;;;;;;;;;;19.20;99.90;;;;;;5073045;28;19908;-70
2022/10/21 13:05:36;;;;;;;;;;;19.20;99.90;;;;;;5073049;28;20283;-71
2022/10/21 13:08:15;;;;;;;;;;;19.20;99.90;;;;;;5073065;28;19908;-71
2022/10/21 13:11:01;;;;;;;;;;;19.20;99.90;;;;;;5073249;28;19909;-71
2022/10/21 13:13:28;;;;;;;;;;;19.20;99.90;;;;;;5073359;28;20029;-71
2022/10/21 13:15:55;;;;;;;;;;;19.20;99.90;;;;;;5073187;28;19916;-71
2022/10/21 13:18:39;;;;;;;;;;;19.20;99.90;;;;;;5073543;28;20272;-71
2022/10/21 13:21:20;;;;;;;;;;;19.20;99.90;;;;;;5073298;28;19908;-71
2022/10/21 13:23:49;;;;;;;;;;;19.20;99.90;;;;;;5073327;28;20369;-71
2022/10/21 13:26:18;;;;;;;;;;;19.20;99.90;;;;;;5073095;28;19915;-70
2022/10/21 13:29:17;;;;;;;;;;;19.10;99.90;;;;;;5073102;28;19909;-70
2022/10/21 13:31:44;;;;;;;;;;;19.10;99.90;;;;;;5018395;28;20331;-71
2022/10/21 13:34:28;;;;;;;;;;;19.10;99.90;;;;;;5072659;28;20375;-71
2022/10/21 13:36:54;;;;;;;;;;;19.10;99.90;;;;;;5073041;28;19966;-71
2022/10/21 13:39:30;;;;;;;;;;;19.10;99.90;;;;;;5073069;28;20007;-72
2022/10/21 13:42:01;;;;;;;;;;;19.10;99.90;;;;;;5072899;28;19908;-71
2022/10/21 13:44:38;;;;;;;;;;;19.00;99.90;;;;;;5075674;28;19946;-72
2022/10/21 13:47:18;;;;;;;;;;;19.00;99.90;;;;;;5092753;28;19950;-71
2022/10/21 13:49:53;;;;;;;;;;;19.00;99.90;;;;;;5092553;28;20091;-70
2022/10/21 13:52:19;;;;;;;;;;;19.00;99.90;;;;;;5092654;28;19908;-72
2022/10/21 13:54:55;;;;;;;;;;;19.00;99.90;;;;;;5092613;28;19969;-71
2022/10/21 13:57:21;;;;;;;;;;;19.00;99.90;;;;;;5092391;28;19908;-71
2022/10/21 13:59:58;;;;;;;;;;;19.00;99.90;;;;;;5092633;28;19947;-71
2022/10/21 14:02:25;;;;;;;;;;;19.00;99.90;;;;;;5074589;28;19958;-71
2022/10/21 14:04:52;;;;;;;;;;;19.00;99.90;;;;;;5092610;28;19921;-71
2022/10/21 14:07:19;;;;;;;;;;;19.00;99.90;;;;;;5092509;28;19912;-71
2022/10/21 14:09:45;;;;;;;;;;;19.00;99.90;;;;;;5092567;28;20387;-71
2022/10/21 14:12:24;;;;;;;;;;;19.00;99.90;;;;;;5091571;28;19915;-70
2022/10/21 14:14:52;;;;;;;;;;;18.90;99.90;;;;;;5092514;28;20435;-70
2022/10/21 14:17:20;;;;;;;;;;;19.00;99.90;;;;;;5074447;28;19915;-72
2022/10/21 14:19:49;;;;;;;;;;;19.00;99.90;;;;;;5092829;28;19953;-71
2022/10/21 14:22:18;;;;;;;;;;;19.00;99.90;;;;;;5092595;28;19908;-71
2022/10/21 14:24:47;;;;;;;;;;;19.00;99.90;;;;;;5092275;28;19966;-71
2022/10/21 14:27:18;;;;;;;;;;;19.00;99.90;;;;;;5092411;28;19914;-72
2022/10/21 14:29:45;;;;;;;;;;;19.00;99.90;;;;;;5092548;28;19914;-70
2022/10/21 14:32:16;;;;;;;;;;;18.90;99.90;;;;;;5092129;28;19930;-71
2022/10/21 14:35:12;;;;;;;;;;;19.00;99.90;;;;;;5091798;28;20361;-71